sensor_id;sensor_type;location;lat;lon;timestamp;pressure;altitude;pressure_sealevel;temperature;humidity
7584;BME280;3833;41.764;26.204;2022-08-01T00:00:52;100322.47;;;23.70;100.00
7584;BME280;3833;41.764;26.204;2022-08-01T00:03:19;100317.56;;;23.56;100.00
7584;BME280;3833;41.764;26.204;2022-08-01T00:05:47;100317.34;;;23.40;100.00
7584;BME280;3833;41.764;26.204;2022-08-01T00:08:14;100283.97;;;23.27;100.00
7584;BME280;3833;41.764;26.204;2022-08-01T00:10:41;100318.16;;;23.50;100.00
7584;BME280;3833;41.764;26.204;2022-08-01T00:13:09;100306.13;;;23.37;100.00
7584;BME280;3833;41.764;26.204;2022-08-01T00:15:36;100317.91;;;23.34;100.00
7584;BME280;3833;41.764;26.204;2022-08-01T00:18:03;100314.94;;;23.37;100.00
7584;BME280;3833;41.764;26.204;2022-08-01T00:20:30;100299.69;;;23.20;100.00
7584;BME280;3833;41.764;26.204;2022-08-01T00:22:56;100312.91;;;23.13;100.00
7584;BME280;3833;41.764;26.204;2022-08-01T00:25:23;100316.66;;;23.01;100.00
7584;BME280;3833;41.764;26.204;2022-08-01T00:27:50;100314.69;;;23.03;100.00
7584;BME280;3833;41.764;26.204;2022-08-01T00:30:18;100299.16;;;22.89;100.00
7584;BME280;3833;41.764;26.204;2022-08-01T00:32:45;100306.44;;;22.87;100.00
7584;BME280;3833;41.764;26.204;2022-08-01T00:35:12;100283.88;;;22.72;100.00
7584;BME280;3833;41.764;26.204;2022-08-01T00:37:39;100296.59;;;22.97;100.00
7584;BME280;3833;41.764;26.204;2022-08-01T00:40:09;100268.59;;;22.93;100.00
7584;BME280;3833;41.764;26.204;2022-08-01T00:42:37;100298.44;;;23.24;100.00
7584;BME280;3833;41.764;26.204;2022-08-01T00:45:05;100299.94;;;23.36;100.00
7584;BME280;3833;41.764;26.204;2022-08-01T00:47:33;100284.38;;;23.41;100.00
7584;BME280;3833;41.764;26.204;2022-08-01T00:50:00;100279.44;;;23.46;100.00
7584;BME280;3833;41.764;26.204;2022-08-01T00:52:27;100286.34;;;23.30;100.00
7584;BME280;3833;41.764;26.204;2022-08-01T00:54:54;100306.94;;;23.47;100.00
7584;BME280;3833;41.764;26.204;2022-08-01T00:57:21;100290.16;;;23.27;100.00
7584;BME280;3833;41.764;26.204;2022-08-01T00:59:48;100299.97;;;23.27;100.00
7584;BME280;3833;41.764;26.204;2022-08-01T01:02:15;100290.16;;;22.99;100.00
7584;BME280;3833;41.764;26.204;2022-08-01T01:04:44;100290.28;;;22.79;100.00
7584;BME280;3833;41.764;26.204;2022-08-01T01:07:17;100300.25;;;22.77;100.00
7584;BME280;3833;41.764;26.204;2022-08-01T01:09:50;100297.44;;;22.97;100.00
7584;BME280;3833;41.764;26.204;2022-08-01T01:12:24;100281.31;;;22.99;100.00
7584;BME280;3833;41.764;26.204;2022-08-01T01:15:01;100303.75;;;23.24;100.00
7584;BME280;3833;41.764;26.204;2022-08-01T01:17:33;100301.94;;;23.25;100.00
7584;BME280;3833;41.764;26.204;2022-08-01T01:20:07;100295.66;;;23.62;100.00
7584;BME280;3833;41.764;26.204;2022-08-01T01:22:50;100293.19;;;23.51;100.00
7584;BME280;3833;41.764;26.204;2022-08-01T01:25:39;100298.16;;;23.27;100.00
7584;BME280;3833;41.764;26.204;2022-08-01T01:28:12;100296.59;;;23.15;100.00
7584;BME280;3833;41.764;26.204;2022-08-01T01:30:44;100298.44;;;23.06;100.00
7584;BME280;3833;41.764;26.204;2022-08-01T01:33:14;100272.50;;;22.89;100.00
7584;BME280;3833;41.764;26.204;2022-08-01T01:35:46;100296.91;;;23.03;100.00
7584;BME280;3833;41.764;26.204;2022-08-01T01:38:17;100288.22;;;22.92;100.00
7584;BME280;3833;41.764;26.204;2022-08-01T01:40:46;100297.72;;;23.22;100.00
7584;BME280;3833;41.764;26.204;2022-08-01T01:43:14;100289.56;;;23.43;100.00
7584;BME280;3833;41.764;26.204;2022-08-01T01:45:44;100282.06;;;23.65;100.00
7584;BME280;3833;41.764;26.204;2022-08-01T01:48:13;100290.28;;;23.81;100.00
7584;BME280;3833;41.764;26.204;2022-08-01T01:50:42;100283.28;;;23.80;100.00
7584;BME280;3833;41.764;26.204;2022-08-01T01:53:12;100289.75;;;23.68;100.00
7584;BME280;3833;41.764;26.204;2022-08-01T01:55:41;100286.53;;;23.74;100.00
7584;BME280;3833;41.764;26.204;2022-08-01T01:58:12;100258.34;;;23.62;100.00
7584;BME280;3833;41.764;26.204;2022-08-01T02:03:10;100277.66;;;23.83;100.00
7584;BME280;3833;41.764;26.204;2022-08-01T02:05:38;100279.34;;;23.84;100.00
7584;BME280;3833;41.764;26.204;2022-08-01T02:08:06;100278.44;;;24.20;100.00
7584;BME280;3833;41.764;26.204;2022-08-01T02:10:35;100257.41;;;23.90;100.00
7584;BME280;3833;41.764;26.204;2022-08-01T02:13:04;100277.50;;;23.75;100.00
7584;BME280;3833;41.764;26.204;2022-08-01T02:15:33;100277.28;;;23.59;100.00
7584;BME280;3833;41.764;26.204;2022-08-01T02:18:05;100284.81;;;23.37;100.00
7584;BME280;3833;41.764;26.204;2022-08-01T02:20:36;100267.69;;;23.30;100.00
7584;BME280;3833;41.764;26.204;2022-08-01T02:23:07;100261.81;;;23.26;100.00
7584;BME280;3833;41.764;26.204;2022-08-01T02:25:41;100260.13;;;23.25;100.00
7584;BME280;3833;41.764;26.204;2022-08-01T02:28:15;100285.06;;;23.43;100.00
7584;BME280;3833;41.764;26.204;2022-08-01T02:30:46;100279.38;;;23.65;100.00
7584;BME280;3833;41.764;26.204;2022-08-01T02:33:16;100249.84;;;23.49;100.00
7584;BME280;3833;41.764;26.204;2022-08-01T02:35:48;100267.38;;;23.42;100.00
7584;BME280;3833;41.764;26.204;2022-08-01T02:38:17;100272.25;;;23.56;100.00
7584;BME280;3833;41.764;26.204;2022-08-01T02:40:46;100274.22;;;23.54;100.00
7584;BME280;3833;41.764;26.204;2022-08-01T02:43:18;100280.56;;;23.34;100.00
7584;BME280;3833;41.764;26.204;2022-08-01T02:45:50;100278.09;;;23.05;100.00
7584;BME280;3833;41.764;26.204;2022-08-01T02:48:19;100278.66;;;22.99;100.00
7584;BME280;3833;41.764;26.204;2022-08-01T02:50:49;100290.72;;;23.03;100.00
7584;BME280;3833;41.764;26.204;2022-08-01T02:53:19;100277.84;;;23.08;100.00
7584;BME280;3833;41.764;26.204;2022-08-01T02:55:47;100283.19;;;23.08;100.00
7584;BME280;3833;41.764;26.204;2022-08-01T02:58:16;100281.19;;;23.28;100.00
7584;BME280;3833;41.764;26.204;2022-08-01T03:00:45;100261.28;;;23.23;100.00
7584;BME280;3833;41.764;26.204;2022-08-01T03:03:14;100268.88;;;23.09;100.00
7584;BME280;3833;41.764;26.204;2022-08-01T03:05:43;100283.69;;;23.02;100.00
7584;BME280;3833;41.764;26.204;2022-08-01T03:08:12;100286.53;;;22.91;100.00
7584;BME280;3833;41.764;26.204;2022-08-01T03:10:43;100284.97;;;22.98;100.00
7584;BME280;3833;41.764;26.204;2022-08-01T03:13:11;100264.09;;;22.74;100.00
7584;BME280;3833;41.764;26.204;2022-08-01T03:15:40;100293.81;;;22.98;100.00
7584;BME280;3833;41.764;26.204;2022-08-01T03:18:09;100297.19;;;23.00;100.00
7584;BME280;3833;41.764;26.204;2022-08-01T03:20:39;100299.16;;;23.08;100.00
7584;BME280;3833;41.764;26.204;2022-08-01T03:23:08;100285.66;;;23.18;100.00
7584;BME280;3833;41.764;26.204;2022-08-01T03:25:39;100279.16;;;23.49;100.00
7584;BME280;3833;41.764;26.204;2022-08-01T03:28:08;100299.31;;;23.61;100.00
7584;BME280;3833;41.764;26.204;2022-08-01T03:30:37;100303.34;;;23.84;100.00
7584;BME280;3833;41.764;26.204;2022-08-01T03:33:06;100296.75;;;23.88;100.00
7584;BME280;3833;41.764;26.204;2022-08-01T03:35:34;100296.44;;;23.91;100.00
7584;BME280;3833;41.764;26.204;2022-08-01T03:38:05;100285.13;;;23.70;100.00
7584;BME280;3833;41.764;26.204;2022-08-01T03:40:39;100308.53;;;23.86;100.00
7584;BME280;3833;41.764;26.204;2022-08-01T03:43:10;100309.53;;;23.85;100.00
7584;BME280;3833;41.764;26.204;2022-08-01T03:45:40;100305.34;;;24.09;100.00
7584;BME280;3833;41.764;26.204;2022-08-01T03:48:10;100306.22;;;24.00;100.00
7584;BME280;3833;41.764;26.204;2022-08-01T03:50:41;100297.22;;;24.28;100.00
7584;BME280;3833;41.764;26.204;2022-08-01T03:53:10;100254.81;;;23.98;100.00
7584;BME280;3833;41.764;26.204;2022-08-01T03:55:41;100298.41;;;23.89;100.00
7584;BME280;3833;41.764;26.204;2022-08-01T03:58:10;100241.63;;;23.14;100.00
7584;BME280;3833;41.764;26.204;2022-08-01T04:00:38;100289.88;;;23.30;100.00
7584;BME280;3833;41.764;26.204;2022-08-01T04:03:07;100275.56;;;22.94;100.00
7584;BME280;3833;41.764;26.204;2022-08-01T04:05:34;100293.38;;;22.84;100.00
7584;BME280;3833;41.764;26.204;2022-08-01T04:08:02;100292.56;;;22.93;100.00
7584;BME280;3833;41.764;26.204;2022-08-01T04:10:29;100296.59;;;22.97;100.00
7584;BME280;3833;41.764;26.204;2022-08-01T04:12:57;100302.78;;;22.59;100.00
7584;BME280;3833;41.764;26.204;2022-08-01T04:15:24;100303.06;;;22.66;100.00
7584;BME280;3833;41.764;26.204;2022-08-01T04:17:51;100273.88;;;22.64;100.00
7584;BME280;3833;41.764;26.204;2022-08-01T04:20:19;100306.56;;;22.85;100.00
7584;BME280;3833;41.764;26.204;2022-08-01T04:22:46;100303.63;;;22.79;100.00
7584;BME280;3833;41.764;26.204;2022-08-01T04:25:17;100305.56;;;22.77;100.00
7584;BME280;3833;41.764;26.204;2022-08-01T04:27:51;100290.03;;;22.72;100.00
7584;BME280;3833;41.764;26.204;2022-08-01T04:30:26;100293.81;;;22.89;100.00
7584;BME280;3833;41.764;26.204;2022-08-01T04:32:57;100307.25;;;23.06;100.00
7584;BME280;3833;41.764;26.204;2022-08-01T04:35:26;100314.16;;;23.09;100.00
7584;BME280;3833;41.764;26.204;2022-08-01T04:37:55;100325.63;;;23.00;100.00
7584;BME280;3833;41.764;26.204;2022-08-01T04:40:25;100336.16;;;22.82;100.00
7584;BME280;3833;41.764;26.204;2022-08-01T04:42:52;100327.03;;;22.85;100.00
7584;BME280;3833;41.764;26.204;2022-08-01T04:45:22;100328.88;;;23.31;100.00
7584;BME280;3833;41.764;26.204;2022-08-01T04:47:50;100327.16;;;23.49;100.00
7584;BME280;3833;41.764;26.204;2022-08-01T04:50:18;100326.47;;;23.47;100.00
7584;BME280;3833;41.764;26.204;2022-08-01T04:52:47;100329.38;;;23.54;100.00
7584;BME280;3833;41.764;26.204;2022-08-01T04:55:16;100326.59;;;23.46;100.00
7584;BME280;3833;41.764;26.204;2022-08-01T04:57:45;100327.44;;;23.46;100.00
7584;BME280;3833;41.764;26.204;2022-08-01T05:00:13;100326.91;;;23.33;100.00
7584;BME280;3833;41.764;26.204;2022-08-01T05:02:43;100333.63;;;23.37;100.00
7584;BME280;3833;41.764;26.204;2022-08-01T05:05:10;100331.53;;;23.31;100.00
7584;BME280;3833;41.764;26.204;2022-08-01T05:07:37;100325.78;;;23.26;100.00
7584;BME280;3833;41.764;26.204;2022-08-01T05:10:05;100323.22;;;23.34;100.00
7584;BME280;3833;41.764;26.204;2022-08-01T05:12:34;100319.59;;;23.35;100.00
7584;BME280;3833;41.764;26.204;2022-08-01T05:15:01;100256.63;;;22.97;100.00
7584;BME280;3833;41.764;26.204;2022-08-01T05:17:28;100317.59;;;23.47;100.00
7584;BME280;3833;41.764;26.204;2022-08-01T05:19:59;100325.16;;;23.61;100.00
7584;BME280;3833;41.764;26.204;2022-08-01T05:22:26;100318.81;;;23.71;100.00
7584;BME280;3833;41.764;26.204;2022-08-01T05:24:53;100318.66;;;23.73;100.00
7584;BME280;3833;41.764;26.204;2022-08-01T05:27:23;100314.72;;;23.77;100.00
7584;BME280;3833;41.764;26.204;2022-08-01T05:29:50;100327.97;;;24.05;100.00
7584;BME280;3833;41.764;26.204;2022-08-01T05:32:17;100337.31;;;24.19;100.00
7584;BME280;3833;41.764;26.204;2022-08-01T05:34:44;100343.19;;;24.22;100.00
7584;BME280;3833;41.764;26.204;2022-08-01T05:37:12;100338.16;;;24.19;100.00
7584;BME280;3833;41.764;26.204;2022-08-01T05:39:42;100335.94;;;24.15;100.00
7584;BME280;3833;41.764;26.204;2022-08-01T05:42:08;100343.38;;;24.38;100.00
7584;BME280;3833;41.764;26.204;2022-08-01T05:44:35;100349.56;;;24.48;100.00
7584;BME280;3833;41.764;26.204;2022-08-01T05:47:02;100338.88;;;24.48;100.00
7584;BME280;3833;41.764;26.204;2022-08-01T05:49:29;100345.06;;;24.48;100.00
7584;BME280;3833;41.764;26.204;2022-08-01T05:51:56;100340.34;;;24.60;100.00
7584;BME280;3833;41.764;26.204;2022-08-01T05:54:24;100326.97;;;24.60;100.00
7584;BME280;3833;41.764;26.204;2022-08-01T05:56:51;100337.53;;;24.61;100.00
7584;BME280;3833;41.764;26.204;2022-08-01T05:59:18;100344.94;;;24.67;100.00
7584;BME280;3833;41.764;26.204;2022-08-01T06:01:45;100342.28;;;24.85;100.00
7584;BME280;3833;41.764;26.204;2022-08-01T06:04:12;100343.88;;;24.95;100.00
7584;BME280;3833;41.764;26.204;2022-08-01T06:06:39;100334.06;;;24.96;100.00
7584;BME280;3833;41.764;26.204;2022-08-01T06:09:06;100348.03;;;25.07;100.00
7584;BME280;3833;41.764;26.204;2022-08-01T06:11:34;100327.41;;;25.17;100.00
7584;BME280;3833;41.764;26.204;2022-08-01T06:14:01;100339.09;;;25.33;100.00
7584;BME280;3833;41.764;26.204;2022-08-01T06:16:28;100292.13;;;25.14;100.00
7584;BME280;3833;41.764;26.204;2022-08-01T06:18:55;100348.53;;;25.45;100.00
7584;BME280;3833;41.764;26.204;2022-08-01T06:21:21;100347.81;;;25.61;100.00
7584;BME280;3833;41.764;26.204;2022-08-01T06:23:51;100339.81;;;25.69;100.00
7584;BME280;3833;41.764;26.204;2022-08-01T06:26:18;100338.44;;;25.82;100.00
7584;BME280;3833;41.764;26.204;2022-08-01T06:28:46;100337.88;;;25.96;98.52
7584;BME280;3833;41.764;26.204;2022-08-01T06:31:13;100328.50;;;26.00;93.47
7584;BME280;3833;41.764;26.204;2022-08-01T06:33:40;100332.44;;;26.22;88.82
7584;BME280;3833;41.764;26.204;2022-08-01T06:36:07;100325.94;;;26.24;86.32
7584;BME280;3833;41.764;26.204;2022-08-01T06:38:34;100330.31;;;26.33;88.68
7584;BME280;3833;41.764;26.204;2022-08-01T06:41:01;100300.78;;;26.09;86.46
7584;BME280;3833;41.764;26.204;2022-08-01T06:43:28;100313.00;;;26.53;91.33
7584;BME280;3833;41.764;26.204;2022-08-01T06:45:56;100305.50;;;26.72;84.93
7584;BME280;3833;41.764;26.204;2022-08-01T06:48:23;100307.50;;;26.70;84.98
7584;BME280;3833;41.764;26.204;2022-08-01T06:50:49;100304.50;;;26.81;82.73
7584;BME280;3833;41.764;26.204;2022-08-01T06:53:33;100294.97;;;26.95;82.89
7584;BME280;3833;41.764;26.204;2022-08-01T06:55:59;100288.44;;;26.97;81.19
7584;BME280;3833;41.764;26.204;2022-08-01T06:58:26;100282.44;;;27.11;80.58
7584;BME280;3833;41.764;26.204;2022-08-01T07:00:53;100280.91;;;27.25;79.71
7584;BME280;3833;41.764;26.204;2022-08-01T07:03:21;100278.19;;;27.48;77.85
7584;BME280;3833;41.764;26.204;2022-08-01T07:05:48;100266.47;;;27.49;71.03
7584;BME280;3833;41.764;26.204;2022-08-01T07:08:15;100274.84;;;27.54;70.66
7584;BME280;3833;41.764;26.204;2022-08-01T07:10:41;100265.78;;;27.55;70.92
7584;BME280;3833;41.764;26.204;2022-08-01T07:13:09;100258.06;;;27.68;72.07
7584;BME280;3833;41.764;26.204;2022-08-01T07:15:37;100228.00;;;27.65;71.37
7584;BME280;3833;41.764;26.204;2022-08-01T07:18:04;100251.94;;;27.90;70.18
7584;BME280;3833;41.764;26.204;2022-08-01T07:20:32;100251.72;;;28.00;68.76
7584;BME280;3833;41.764;26.204;2022-08-01T07:22:59;100260.22;;;28.11;67.87
7584;BME280;3833;41.764;26.204;2022-08-01T07:25:28;100250.81;;;28.15;63.30
7584;BME280;3833;41.764;26.204;2022-08-01T07:27:55;100235.38;;;28.09;62.32
7584;BME280;3833;41.764;26.204;2022-08-01T07:30:22;100247.84;;;28.41;60.88
7584;BME280;3833;41.764;26.204;2022-08-01T07:32:48;100249.63;;;29.01;57.84
7584;BME280;3833;41.764;26.204;2022-08-01T07:35:15;100252.91;;;30.05;56.71
7584;BME280;3833;41.764;26.204;2022-08-01T07:37:43;100239.25;;;30.42;54.96
7584;BME280;3833;41.764;26.204;2022-08-01T07:40:11;100254.19;;;31.01;51.46
7584;BME280;3833;41.764;26.204;2022-08-01T07:42:38;100254.50;;;31.61;49.80
7584;BME280;3833;41.764;26.204;2022-08-01T07:45:09;100252.66;;;32.01;46.08
7584;BME280;3833;41.764;26.204;2022-08-01T07:47:36;100254.47;;;32.28;45.32
7584;BME280;3833;41.764;26.204;2022-08-01T07:50:04;100226.31;;;32.16;44.15
7584;BME280;3833;41.764;26.204;2022-08-01T07:52:31;100247.06;;;32.63;43.98
7584;BME280;3833;41.764;26.204;2022-08-01T07:54:59;100240.06;;;33.07;41.34
7584;BME280;3833;41.764;26.204;2022-08-01T07:57:26;100230.03;;;32.62;40.09
7584;BME280;3833;41.764;26.204;2022-08-01T07:59:53;100235.88;;;32.79;41.84
7584;BME280;3833;41.764;26.204;2022-08-01T08:02:20;100238.63;;;33.11;40.09
7584;BME280;3833;41.764;26.204;2022-08-01T08:04:47;100243.38;;;32.96;40.12
7584;BME280;3833;41.764;26.204;2022-08-01T08:07:14;100231.69;;;32.70;40.40
7584;BME280;3833;41.764;26.204;2022-08-01T08:09:41;100235.97;;;32.38;39.26
7584;BME280;3833;41.764;26.204;2022-08-01T08:12:09;100239.41;;;32.79;39.80
7584;BME280;3833;41.764;26.204;2022-08-01T08:14:36;100240.28;;;33.38;39.19
7584;BME280;3833;41.764;26.204;2022-08-01T08:17:04;100233.84;;;33.26;38.32
7584;BME280;3833;41.764;26.204;2022-08-01T08:19:30;100230.88;;;33.53;38.23
7584;BME280;3833;41.764;26.204;2022-08-01T08:21:58;100238.28;;;33.97;36.79
7584;BME280;3833;41.764;26.204;2022-08-01T08:24:26;100233.28;;;34.00;36.95
7584;BME280;3833;41.764;26.204;2022-08-01T08:26:55;100232.00;;;34.03;36.37
7584;BME280;3833;41.764;26.204;2022-08-01T08:29:25;100232.50;;;33.74;35.79
7584;BME280;3833;41.764;26.204;2022-08-01T08:31:52;100228.16;;;32.69;37.47
7584;BME280;3833;41.764;26.204;2022-08-01T08:34:20;100223.81;;;33.01;37.55
7584;BME280;3833;41.764;26.204;2022-08-01T08:36:47;100234.84;;;33.64;36.35
7584;BME280;3833;41.764;26.204;2022-08-01T08:39:14;100217.75;;;33.44;36.74
7584;BME280;3833;41.764;26.204;2022-08-01T08:41:41;100223.28;;;33.94;35.29
7584;BME280;3833;41.764;26.204;2022-08-01T08:44:09;100222.72;;;33.79;35.05
7584;BME280;3833;41.764;26.204;2022-08-01T08:46:40;100205.06;;;34.14;34.12
7584;BME280;3833;41.764;26.204;2022-08-01T08:49:08;100219.41;;;34.58;34.28
7584;BME280;3833;41.764;26.204;2022-08-01T08:51:38;100213.78;;;34.66;33.88
7584;BME280;3833;41.764;26.204;2022-08-01T08:54:06;100216.84;;;35.01;33.91
7584;BME280;3833;41.764;26.204;2022-08-01T08:56:34;100197.47;;;34.66;32.60
7584;BME280;3833;41.764;26.204;2022-08-01T08:59:02;100187.19;;;34.37;33.02
7584;BME280;3833;41.764;26.204;2022-08-01T09:01:31;100154.97;;;33.73;33.67
7584;BME280;3833;41.764;26.204;2022-08-01T09:04:05;100209.09;;;34.42;33.28
7584;BME280;3833;41.764;26.204;2022-08-01T09:06:33;100196.38;;;34.36;33.43
7584;BME280;3833;41.764;26.204;2022-08-01T09:09:00;100205.63;;;34.29;33.06
7584;BME280;3833;41.764;26.204;2022-08-01T09:11:27;100191.88;;;34.61;32.16
7584;BME280;3833;41.764;26.204;2022-08-01T09:14:08;100199.16;;;34.67;33.15
7584;BME280;3833;41.764;26.204;2022-08-01T09:16:36;100194.66;;;35.10;32.65
7584;BME280;3833;41.764;26.204;2022-08-01T09:19:10;100191.91;;;34.86;32.89
7584;BME280;3833;41.764;26.204;2022-08-01T09:21:38;100193.44;;;35.00;31.96
7584;BME280;3833;41.764;26.204;2022-08-01T09:24:14;100187.63;;;34.96;31.61
7584;BME280;3833;41.764;26.204;2022-08-01T09:26:42;100184.47;;;34.99;31.70
7584;BME280;3833;41.764;26.204;2022-08-01T09:29:21;100178.69;;;34.58;32.02
7584;BME280;3833;41.764;26.204;2022-08-01T09:31:51;100183.13;;;34.22;33.68
7584;BME280;3833;41.764;26.204;2022-08-01T09:34:25;100175.44;;;34.50;33.39
7584;BME280;3833;41.764;26.204;2022-08-01T09:36:54;100166.38;;;34.62;33.08
7584;BME280;3833;41.764;26.204;2022-08-01T09:39:23;100170.41;;;34.53;32.39
7584;BME280;3833;41.764;26.204;2022-08-01T09:41:50;100176.72;;;34.47;32.60
7584;BME280;3833;41.764;26.204;2022-08-01T09:44:18;100170.44;;;34.47;33.38
7584;BME280;3833;41.764;26.204;2022-08-01T09:46:53;100182.94;;;34.54;33.35
7584;BME280;3833;41.764;26.204;2022-08-01T09:49:40;100180.75;;;34.69;31.90
7584;BME280;3833;41.764;26.204;2022-08-01T09:52:12;100181.28;;;34.53;32.64
7584;BME280;3833;41.764;26.204;2022-08-01T09:54:40;100178.56;;;34.47;32.33
7584;BME280;3833;41.764;26.204;2022-08-01T09:57:12;100171.28;;;34.47;32.06
7584;BME280;3833;41.764;26.204;2022-08-01T09:59:41;100172.72;;;34.50;32.63
7584;BME280;3833;41.764;26.204;2022-08-01T10:02:09;100183.47;;;34.32;32.66
7584;BME280;3833;41.764;26.204;2022-08-01T10:04:47;100165.94;;;34.34;32.88
7584;BME280;3833;41.764;26.204;2022-08-01T10:07:15;100166.78;;;34.35;33.56
7584;BME280;3833;41.764;26.204;2022-08-01T10:09:42;100175.22;;;34.51;33.03
7584;BME280;3833;41.764;26.204;2022-08-01T10:12:11;100178.72;;;34.65;32.54
7584;BME280;3833;41.764;26.204;2022-08-01T10:14:39;100170.63;;;34.14;32.42
7584;BME280;3833;41.764;26.204;2022-08-01T10:17:07;100177.72;;;34.09;33.67
7584;BME280;3833;41.764;26.204;2022-08-01T10:19:35;100168.38;;;34.42;34.48
7584;BME280;3833;41.764;26.204;2022-08-01T10:22:07;100182.00;;;34.67;31.69
7584;BME280;3833;41.764;26.204;2022-08-01T10:24:37;100163.47;;;34.64;32.63
7584;BME280;3833;41.764;26.204;2022-08-01T10:27:06;100165.41;;;34.50;31.54
7584;BME280;3833;41.764;26.204;2022-08-01T10:29:36;100163.31;;;34.52;32.26
7584;BME280;3833;41.764;26.204;2022-08-01T10:32:04;100161.16;;;34.67;32.19
7584;BME280;3833;41.764;26.204;2022-08-01T10:34:35;100163.25;;;34.65;31.88
7584;BME280;3833;41.764;26.204;2022-08-01T10:37:04;100168.28;;;34.55;31.90
7584;BME280;3833;41.764;26.204;2022-08-01T10:39:31;100161.66;;;34.51;31.85
7584;BME280;3833;41.764;26.204;2022-08-01T10:41:59;100140.16;;;34.81;31.37
7584;BME280;3833;41.764;26.204;2022-08-01T10:44:28;100135.66;;;34.68;31.73
7584;BME280;3833;41.764;26.204;2022-08-01T10:46:59;100152.41;;;35.14;31.44
7584;BME280;3833;41.764;26.204;2022-08-01T10:49:30;100152.56;;;35.37;31.22
7584;BME280;3833;41.764;26.204;2022-08-01T10:51:58;100146.13;;;35.56;30.49
7584;BME280;3833;41.764;26.204;2022-08-01T10:54:26;100151.03;;;35.65;30.29
7584;BME280;3833;41.764;26.204;2022-08-01T10:56:54;100144.72;;;35.47;30.73
7584;BME280;3833;41.764;26.204;2022-08-01T10:59:22;100138.69;;;35.81;31.57
7584;BME280;3833;41.764;26.204;2022-08-01T11:01:57;100139.44;;;35.88;30.23
7584;BME280;3833;41.764;26.204;2022-08-01T11:04:43;100150.44;;;36.11;30.59
7584;BME280;3833;41.764;26.204;2022-08-01T11:07:16;100144.31;;;36.15;29.14
7584;BME280;3833;41.764;26.204;2022-08-01T11:09:47;100148.00;;;36.21;29.31
7584;BME280;3833;41.764;26.204;2022-08-01T11:12:15;100127.34;;;36.02;29.09
7584;BME280;3833;41.764;26.204;2022-08-01T11:17:50;100081.34;;;35.82;29.35
7584;BME280;3833;41.764;26.204;2022-08-01T11:20:18;100131.56;;;36.16;29.96
7584;BME280;3833;41.764;26.204;2022-08-01T11:26:12;100116.41;;;36.20;29.27
7584;BME280;3833;41.764;26.204;2022-08-01T11:28:42;100122.13;;;36.30;29.33
7584;BME280;3833;41.764;26.204;2022-08-01T11:31:27;100116.50;;;36.13;29.47
7584;BME280;3833;41.764;26.204;2022-08-01T11:33:54;100111.41;;;36.46;29.09
7584;BME280;3833;41.764;26.204;2022-08-01T11:36:22;100119.94;;;36.49;29.34
7584;BME280;3833;41.764;26.204;2022-08-01T11:39:10;100120.25;;;36.41;28.69
7584;BME280;3833;41.764;26.204;2022-08-01T11:41:39;100106.38;;;36.32;29.37
7584;BME280;3833;41.764;26.204;2022-08-01T11:44:07;100104.50;;;36.43;28.67
7584;BME280;3833;41.764;26.204;2022-08-01T11:46:49;100088.72;;;36.23;28.60
7584;BME280;3833;41.764;26.204;2022-08-01T11:49:32;100108.66;;;36.35;28.97
7584;BME280;3833;41.764;26.204;2022-08-01T11:52:01;100092.66;;;36.38;28.79
7584;BME280;3833;41.764;26.204;2022-08-01T11:54:30;100103.97;;;36.64;28.94
7584;BME280;3833;41.764;26.204;2022-08-01T11:57:00;100095.81;;;36.24;27.71
7584;BME280;3833;41.764;26.204;2022-08-01T11:59:27;100092.25;;;36.12;29.11
7584;BME280;3833;41.764;26.204;2022-08-01T12:01:54;100101.31;;;36.35;28.97
7584;BME280;3833;41.764;26.204;2022-08-01T12:04:21;100097.94;;;36.22;29.29
7584;BME280;3833;41.764;26.204;2022-08-01T12:06:48;99991.00;;;35.80;29.36
7584;BME280;3833;41.764;26.204;2022-08-01T12:09:16;100089.78;;;36.85;27.96
7584;BME280;3833;41.764;26.204;2022-08-01T12:11:43;100086.63;;;37.00;28.02
7584;BME280;3833;41.764;26.204;2022-08-01T12:14:18;100077.63;;;36.99;27.48
7584;BME280;3833;41.764;26.204;2022-08-01T12:16:51;100082.47;;;36.74;27.84
7584;BME280;3833;41.764;26.204;2022-08-01T12:19:20;100094.91;;;36.93;29.36
7584;BME280;3833;41.764;26.204;2022-08-01T12:22:04;100088.00;;;37.14;27.87
7584;BME280;3833;41.764;26.204;2022-08-01T12:24:32;100022.28;;;36.76;27.45
7584;BME280;3833;41.764;26.204;2022-08-01T12:26:59;100089.09;;;37.01;27.88
7584;BME280;3833;41.764;26.204;2022-08-01T12:29:38;100084.13;;;36.75;27.88
7584;BME280;3833;41.764;26.204;2022-08-01T12:32:22;100076.31;;;36.27;28.94
7584;BME280;3833;41.764;26.204;2022-08-01T12:34:50;100052.19;;;36.01;28.80
7584;BME280;3833;41.764;26.204;2022-08-01T12:37:17;100075.94;;;36.12;28.87
7584;BME280;3833;41.764;26.204;2022-08-01T12:39:45;100061.28;;;36.13;29.17
7584;BME280;3833;41.764;26.204;2022-08-01T12:42:12;100075.72;;;36.25;29.12
7584;BME280;3833;41.764;26.204;2022-08-01T12:44:42;100049.06;;;36.15;28.79
7584;BME280;3833;41.764;26.204;2022-08-01T12:47:10;100069.81;;;36.28;28.29
7584;BME280;3833;41.764;26.204;2022-08-01T12:49:38;100070.78;;;36.44;28.89
7584;BME280;3833;41.764;26.204;2022-08-01T12:52:10;100062.38;;;36.35;27.94
7584;BME280;3833;41.764;26.204;2022-08-01T12:55:09;100048.47;;;35.36;29.59
7584;BME280;3833;41.764;26.204;2022-08-01T12:57:39;100053.31;;;35.82;29.36
7584;BME280;3833;41.764;26.204;2022-08-01T13:00:11;100036.00;;;35.65;29.23
7584;BME280;3833;41.764;26.204;2022-08-01T13:02:39;100037.75;;;35.59;29.33
7584;BME280;3833;41.764;26.204;2022-08-01T13:05:08;100050.22;;;35.31;30.60
7584;BME280;3833;41.764;26.204;2022-08-01T13:07:37;100038.72;;;35.47;30.41
7584;BME280;3833;41.764;26.204;2022-08-01T13:10:04;100033.63;;;35.57;30.53
7584;BME280;3833;41.764;26.204;2022-08-01T13:12:32;100042.34;;;35.41;29.71
7584;BME280;3833;41.764;26.204;2022-08-01T13:14:59;100058.81;;;35.46;29.93